sensor_id;sensor_type;location;lat;lon;timestamp;temperature;humidity
44215;DHT22;29884;47.450;19.124;2023-02-01T00:01:48;3.10;99.90
44215;DHT22;29884;47.450;19.124;2023-02-01T00:04:14;3.20;99.90
44215;DHT22;29884;47.450;19.124;2023-02-01T00:06:40;3.20;99.90
44215;DHT22;29884;47.450;19.124;2023-02-01T00:09:06;3.20;99.90
44215;DHT22;29884;47.450;19.124;2023-02-01T00:11:32;3.20;99.90
44215;DHT22;29884;47.450;19.124;2023-02-01T00:13:57;3.20;99.90
44215;DHT22;29884;47.450;19.124;2023-02-01T00:16:26;3.20;99.90
44215;DHT22;29884;47.450;19.124;2023-02-01T00:19:00;3.20;99.90
44215;DHT22;29884;47.450;19.124;2023-02-01T00:21:26;3.20;99.90
44215;DHT22;29884;47.450;19.124;2023-02-01T00:23:52;3.20;99.90
44215;DHT22;29884;47.450;19.124;2023-02-01T00:26:39;3.20;99.90
44215;DHT22;29884;47.450;19.124;2023-02-01T00:29:08;3.20;99.90
44215;DHT22;29884;47.450;19.124;2023-02-01T00:31:34;3.20;99.90
44215;DHT22;29884;47.450;19.124;2023-02-01T00:34:00;3.20;99.90
44215;DHT22;29884;47.450;19.124;2023-02-01T00:36:26;3.20;99.90
44215;DHT22;29884;47.450;19.124;2023-02-01T00:38:53;3.20;99.90
44215;DHT22;29884;47.450;19.124;2023-02-01T00:41:20;3.30;99.90
44215;DHT22;29884;47.450;19.124;2023-02-01T00:43:46;3.30;99.90
44215;DHT22;29884;47.450;19.124;2023-02-01T00:46:14;3.30;99.90
44215;DHT22;29884;47.450;19.124;2023-02-01T00:48:40;3.30;99.90
44215;DHT22;29884;47.450;19.124;2023-02-01T00:51:09;3.30;99.90
44215;DHT22;29884;47.450;19.124;2023-02-01T00:53:35;3.30;99.90
44215;DHT22;29884;47.450;19.124;2023-02-01T00:56:01;3.30;99.90
44215;DHT22;29884;47.450;19.124;2023-02-01T00:58:27;3.40;99.90
44215;DHT22;29884;47.450;19.124;2023-02-01T01:01:16;3.40;99.90
44215;DHT22;29884;47.450;19.124;2023-02-01T01:03:44;3.30;99.90
44215;DHT22;29884;47.450;19.124;2023-02-01T01:06:13;3.40;99.90
44215;DHT22;29884;47.450;19.124;2023-02-01T01:08:40;3.40;99.90
44215;DHT22;29884;47.450;19.124;2023-02-01T01:11:11;3.40;99.90
44215;DHT22;29884;47.450;19.124;2023-02-01T01:13:37;3.50;99.90
44215;DHT22;29884;47.450;19.124;2023-02-01T01:16:04;3.50;99.90
44215;DHT22;29884;47.450;19.124;2023-02-01T01:18:31;3.50;99.90
44215;DHT22;29884;47.450;19.124;2023-02-01T01:20:58;3.50;99.90
44215;DHT22;29884;47.450;19.124;2023-02-01T01:23:24;3.50;99.90
44215;DHT22;29884;47.450;19.124;2023-02-01T01:25:50;3.50;99.90
44215;DHT22;29884;47.450;19.124;2023-02-01T01:28:16;3.50;99.90
44215;DHT22;29884;47.450;19.124;2023-02-01T01:30:41;3.50;99.90
44215;DHT22;29884;47.450;19.124;2023-02-01T01:33:07;3.50;99.90
44215;DHT22;29884;47.450;19.124;2023-02-01T01:35:33;3.50;99.90
44215;DHT22;29884;47.450;19.124;2023-02-01T01:38:00;3.50;99.90
44215;DHT22;29884;47.450;19.124;2023-02-01T01:40:27;3.50;99.90
44215;DHT22;29884;47.450;19.124;2023-02-01T01:42:53;3.40;99.90
44215;DHT22;29884;47.450;19.124;2023-02-01T01:45:32;3.50;99.90
44215;DHT22;29884;47.450;19.124;2023-02-01T01:48:05;3.40;99.90
44215;DHT22;29884;47.450;19.124;2023-02-01T01:50:50;3.40;99.90
44215;DHT22;29884;47.450;19.124;2023-02-01T01:53:22;3.30;99.90
44215;DHT22;29884;47.450;19.124;2023-02-01T01:55:51;3.40;99.90
44215;DHT22;29884;47.450;19.124;2023-02-01T01:58:21;3.30;99.90
44215;DHT22;29884;47.450;19.124;2023-02-01T02:00:48;3.40;99.90
44215;DHT22;29884;47.450;19.124;2023-02-01T02:03:17;3.40;99.90
44215;DHT22;29884;47.450;19.124;2023-02-01T02:05:44;3.50;99.90
44215;DHT22;29884;47.450;19.124;2023-02-01T02:08:10;3.50;99.90
44215;DHT22;29884;47.450;19.124;2023-02-01T02:10:37;3.40;99.90
44215;DHT22;29884;47.450;19.124;2023-02-01T02:13:22;3.50;99.90
44215;DHT22;29884;47.450;19.124;2023-02-01T02:17:01;3.40;99.90
44215;DHT22;29884;47.450;19.124;2023-02-01T02:44:57;3.00;99.90
44215;DHT22;29884;47.450;19.124;2023-02-01T02:50:37;3.00;99.90
44215;DHT22;29884;47.450;19.124;2023-02-01T02:53:30;3.00;99.90
44215;DHT22;29884;47.450;19.124;2023-02-01T02:56:16;2.90;99.90
44215;DHT22;29884;47.450;19.124;2023-02-01T02:59:03;2.90;99.90
44215;DHT22;29884;47.450;19.124;2023-02-01T03:01:49;2.80;99.90
44215;DHT22;29884;47.450;19.124;2023-02-01T03:04:33;2.80;99.90
44215;DHT22;29884;47.450;19.124;2023-02-01T03:09:58;2.70;99.90
44215;DHT22;29884;47.450;19.124;2023-02-01T03:12:33;2.60;99.90
44215;DHT22;29884;47.450;19.124;2023-02-01T03:15:32;2.50;99.90
44215;DHT22;29884;47.450;19.124;2023-02-01T03:18:01;2.30;99.90
44215;DHT22;29884;47.450;19.124;2023-02-01T03:20:29;2.30;99.90
44215;DHT22;29884;47.450;19.124;2023-02-01T03:22:55;2.30;99.90
44215;DHT22;29884;47.450;19.124;2023-02-01T03:25:26;2.20;99.90
44215;DHT22;29884;47.450;19.124;2023-02-01T03:28:06;2.20;99.90
44215;DHT22;29884;47.450;19.124;2023-02-01T03:30:40;2.20;99.90
44215;DHT22;29884;47.450;19.124;2023-02-01T03:33:11;2.10;99.90
44215;DHT22;29884;47.450;19.124;2023-02-01T03:41:26;2.00;99.90
44215;DHT22;29884;47.450;19.124;2023-02-01T03:47:06;2.00;99.90
44215;DHT22;29884;47.450;19.124;2023-02-01T03:49:35;2.00;99.90
44215;DHT22;29884;47.450;19.124;2023-02-01T03:52:02;2.00;99.90
44215;DHT22;29884;47.450;19.124;2023-02-01T03:54:30;2.30;99.90
44215;DHT22;29884;47.450;19.124;2023-02-01T03:57:00;2.40;99.90
44215;DHT22;29884;47.450;19.124;2023-02-01T03:59:27;2.60;99.90
44215;DHT22;29884;47.450;19.124;2023-02-01T04:01:53;3.10;99.90
44215;DHT22;29884;47.450;19.124;2023-02-01T04:04:19;3.40;99.90
44215;DHT22;29884;47.450;19.124;2023-02-01T04:06:49;3.60;99.90
44215;DHT22;29884;47.450;19.124;2023-02-01T04:09:15;3.70;99.90
44215;DHT22;29884;47.450;19.124;2023-02-01T04:11:40;3.70;99.90
44215;DHT22;29884;47.450;19.124;2023-02-01T04:14:06;3.80;99.90
44215;DHT22;29884;47.450;19.124;2023-02-01T04:16:32;3.80;99.90
44215;DHT22;29884;47.450;19.124;2023-02-01T04:18:58;4.00;99.90
44215;DHT22;29884;47.450;19.124;2023-02-01T04:21:27;4.10;99.90
44215;DHT22;29884;47.450;19.124;2023-02-01T04:23:53;4.20;99.90
44215;DHT22;29884;47.450;19.124;2023-02-01T04:26:19;4.20;99.90
44215;DHT22;29884;47.450;19.124;2023-02-01T04:28:46;4.10;99.90
44215;DHT22;29884;47.450;19.124;2023-02-01T04:31:15;4.10;99.90
44215;DHT22;29884;47.450;19.124;2023-02-01T04:33:41;4.30;99.90
44215;DHT22;29884;47.450;19.124;2023-02-01T04:36:07;4.30;99.90
44215;DHT22;29884;47.450;19.124;2023-02-01T04:38:33;4.40;99.90
44215;DHT22;29884;47.450;19.124;2023-02-01T04:40:59;4.30;99.90
44215;DHT22;29884;47.450;19.124;2023-02-01T04:43:25;4.30;99.90
44215;DHT22;29884;47.450;19.124;2023-02-01T04:45:51;4.30;99.90
44215;DHT22;29884;47.450;19.124;2023-02-01T04:48:18;4.30;99.90
44215;DHT22;29884;47.450;19.124;2023-02-01T04:50:45;4.20;99.90
44215;DHT22;29884;47.450;19.124;2023-02-01T04:53:14;4.30;99.90
44215;DHT22;29884;47.450;19.124;2023-02-01T04:55:40;4.40;99.90
44215;DHT22;29884;47.450;19.124;2023-02-01T04:58:06;4.50;99.90
44215;DHT22;29884;47.450;19.124;2023-02-01T05:00:32;4.50;99.90
44215;DHT22;29884;47.450;19.124;2023-02-01T05:02:57;4.50;99.90
44215;DHT22;29884;47.450;19.124;2023-02-01T05:05:23;4.40;99.90
44215;DHT22;29884;47.450;19.124;2023-02-01T05:07:49;4.40;99.90
44215;DHT22;29884;47.450;19.124;2023-02-01T05:10:15;4.40;99.90
44215;DHT22;29884;47.450;19.124;2023-02-01T05:12:43;4.40;99.90
44215;DHT22;29884;47.450;19.124;2023-02-01T05:15:28;4.40;99.90
44215;DHT22;29884;47.450;19.124;2023-02-01T05:17:54;4.40;99.90
44215;DHT22;29884;47.450;19.124;2023-02-01T05:20:20;4.60;99.90
44215;DHT22;29884;47.450;19.124;2023-02-01T05:22:45;4.40;99.90
44215;DHT22;29884;47.450;19.124;2023-02-01T05:25:11;4.50;99.90
44215;DHT22;29884;47.450;19.124;2023-02-01T05:27:37;4.60;99.90
44215;DHT22;29884;47.450;19.124;2023-02-01T05:30:07;4.70;99.90
44215;DHT22;29884;47.450;19.124;2023-02-01T05:32:33;4.60;99.90
44215;DHT22;29884;47.450;19.124;2023-02-01T05:34:59;4.60;99.90
44215;DHT22;29884;47.450;19.124;2023-02-01T05:37:25;4.50;99.90
44215;DHT22;29884;47.450;19.124;2023-02-01T05:39:51;4.50;99.90
44215;DHT22;29884;47.450;19.124;2023-02-01T05:42:17;4.40;99.90
44215;DHT22;29884;47.450;19.124;2023-02-01T05:44:43;4.50;99.90
44215;DHT22;29884;47.450;19.124;2023-02-01T05:47:08;4.50;99.90
44215;DHT22;29884;47.450;19.124;2023-02-01T05:49:35;4.50;99.90
44215;DHT22;29884;47.450;19.124;2023-02-01T05:52:00;4.40;99.90
44215;DHT22;29884;47.450;19.124;2023-02-01T05:54:27;4.30;99.90
44215;DHT22;29884;47.450;19.124;2023-02-01T05:56:53;4.30;99.90
44215;DHT22;29884;47.450;19.124;2023-02-01T05:59:18;4.20;99.90
44215;DHT22;29884;47.450;19.124;2023-02-01T06:01:44;4.10;99.90
44215;DHT22;29884;47.450;19.124;2023-02-01T06:04:19;4.10;99.90
44215;DHT22;29884;47.450;19.124;2023-02-01T06:06:51;4.10;99.90
44215;DHT22;29884;47.450;19.124;2023-02-01T06:09:16;4.00;99.90
44215;DHT22;29884;47.450;19.124;2023-02-01T06:11:42;3.90;99.90
44215;DHT22;29884;47.450;19.124;2023-02-01T06:14:08;3.80;99.90
44215;DHT22;29884;47.450;19.124;2023-02-01T06:16:37;4.00;99.90
44215;DHT22;29884;47.450;19.124;2023-02-01T06:19:03;4.20;99.90
44215;DHT22;29884;47.450;19.124;2023-02-01T06:21:29;4.20;99.90
44215;DHT22;29884;47.450;19.124;2023-02-01T06:23:55;4.30;99.90
44215;DHT22;29884;47.450;19.124;2023-02-01T06:26:22;4.40;99.90
44215;DHT22;29884;47.450;19.124;2023-02-01T06:28:49;4.40;99.90
44215;DHT22;29884;47.450;19.124;2023-02-01T06:31:15;4.50;99.90
44215;DHT22;29884;47.450;19.124;2023-02-01T06:33:41;4.50;99.90
44215;DHT22;29884;47.450;19.124;2023-02-01T06:36:09;4.50;99.90
44215;DHT22;29884;47.450;19.124;2023-02-01T06:38:36;4.60;99.90
44215;DHT22;29884;47.450;19.124;2023-02-01T06:41:02;4.50;99.90
44215;DHT22;29884;47.450;19.124;2023-02-01T06:43:29;4.50;99.90
44215;DHT22;29884;47.450;19.124;2023-02-01T06:46:06;4.50;99.90
44215;DHT22;29884;47.450;19.124;2023-02-01T06:48:33;4.60;99.90
44215;DHT22;29884;47.450;19.124;2023-02-01T06:50:59;4.70;99.90
44215;DHT22;29884;47.450;19.124;2023-02-01T06:53:25;4.80;99.90
44215;DHT22;29884;47.450;19.124;2023-02-01T06:55:53;5.10;99.90
44215;DHT22;29884;47.450;19.124;2023-02-01T06:58:19;5.20;99.90
44215;DHT22;29884;47.450;19.124;2023-02-01T07:00:44;5.30;99.90
44215;DHT22;29884;47.450;19.124;2023-02-01T07:03:11;5.40;99.90
44215;DHT22;29884;47.450;19.124;2023-02-01T07:05:37;5.40;99.90
44215;DHT22;29884;47.450;19.124;2023-02-01T07:08:03;5.50;99.90
44215;DHT22;29884;47.450;19.124;2023-02-01T07:10:28;5.60;99.90
44215;DHT22;29884;47.450;19.124;2023-02-01T07:12:57;5.70;99.90
44215;DHT22;29884;47.450;19.124;2023-02-01T07:15:23;5.70;99.90
44215;DHT22;29884;47.450;19.124;2023-02-01T07:17:49;5.70;99.90
44215;DHT22;29884;47.450;19.124;2023-02-01T07:20:15;5.80;99.90
44215;DHT22;29884;47.450;19.124;2023-02-01T07:22:41;5.70;99.90
44215;DHT22;29884;47.450;19.124;2023-02-01T07:25:07;5.70;99.90
44215;DHT22;29884;47.450;19.124;2023-02-01T07:27:36;5.80;99.90
44215;DHT22;29884;47.450;19.124;2023-02-01T07:30:03;5.90;99.90
44215;DHT22;29884;47.450;19.124;2023-02-01T07:32:30;5.90;99.90
44215;DHT22;29884;47.450;19.124;2023-02-01T07:34:56;5.90;99.90
44215;DHT22;29884;47.450;19.124;2023-02-01T07:37:22;6.00;99.90
44215;DHT22;29884;47.450;19.124;2023-02-01T07:39:49;6.00;99.90
44215;DHT22;29884;47.450;19.124;2023-02-01T07:42:15;6.10;99.90
44215;DHT22;29884;47.450;19.124;2023-02-01T07:44:41;6.10;99.90
44215;DHT22;29884;47.450;19.124;2023-02-01T07:47:07;6.20;99.90
44215;DHT22;29884;47.450;19.124;2023-02-01T07:49:33;6.20;99.90
44215;DHT22;29884;47.450;19.124;2023-02-01T07:51:58;6.30;99.90
44215;DHT22;29884;47.450;19.124;2023-02-01T07:54:24;6.30;99.90
44215;DHT22;29884;47.450;19.124;2023-02-01T07:56:50;6.40;99.90
44215;DHT22;29884;47.450;19.124;2023-02-01T07:59:15;6.40;99.90
44215;DHT22;29884;47.450;19.124;2023-02-01T08:01:41;6.50;99.90
44215;DHT22;29884;47.450;19.124;2023-02-01T08:04:09;6.60;99.90
44215;DHT22;29884;47.450;19.124;2023-02-01T08:06:36;6.50;99.90
44215;DHT22;29884;47.450;19.124;2023-02-01T08:09:02;6.60;99.90
44215;DHT22;29884;47.450;19.124;2023-02-01T08:11:29;6.60;99.90
44215;DHT22;29884;47.450;19.124;2023-02-01T08:13:55;6.60;99.90
44215;DHT22;29884;47.450;19.124;2023-02-01T08:16:22;6.60;99.90
44215;DHT22;29884;47.450;19.124;2023-02-01T08:18:49;6.70;99.90
44215;DHT22;29884;47.450;19.124;2023-02-01T08:21:20;6.60;99.90
44215;DHT22;29884;47.450;19.124;2023-02-01T08:23:47;6.60;99.90
44215;DHT22;29884;47.450;19.124;2023-02-01T08:26:22;6.60;99.90
44215;DHT22;29884;47.450;19.124;2023-02-01T08:28:59;6.60;99.90
44215;DHT22;29884;47.450;19.124;2023-02-01T08:31:27;6.60;99.90
44215;DHT22;29884;47.450;19.124;2023-02-01T08:50:56;6.40;99.90
44215;DHT22;29884;47.450;19.124;2023-02-01T08:53:23;6.40;99.90
44215;DHT22;29884;47.450;19.124;2023-02-01T08:55:48;6.40;99.90
44215;DHT22;29884;47.450;19.124;2023-02-01T08:58:14;6.30;99.90
44215;DHT22;29884;47.450;19.124;2023-02-01T09:00:43;6.30;99.90
44215;DHT22;29884;47.450;19.124;2023-02-01T09:03:10;6.30;99.90
44215;DHT22;29884;47.450;19.124;2023-02-01T09:05:36;6.50;99.90
44215;DHT22;29884;47.450;19.124;2023-02-01T09:08:02;6.70;99.90
44215;DHT22;29884;47.450;19.124;2023-02-01T09:10:28;6.80;99.90
44215;DHT22;29884;47.450;19.124;2023-02-01T09:12:54;6.90;99.90
44215;DHT22;29884;47.450;19.124;2023-02-01T09:15:19;6.80;99.90
44215;DHT22;29884;47.450;19.124;2023-02-01T09:17:45;6.90;99.90
44215;DHT22;29884;47.450;19.124;2023-02-01T09:20:12;6.90;99.90
44215;DHT22;29884;47.450;19.124;2023-02-01T09:22:37;7.00;99.90
44215;DHT22;29884;47.450;19.124;2023-02-01T09:25:03;7.00;99.90
44215;DHT22;29884;47.450;19.124;2023-02-01T09:27:29;7.10;99.90
44215;DHT22;29884;47.450;19.124;2023-02-01T09:29:55;7.20;99.90
44215;DHT22;29884;47.450;19.124;2023-02-01T09:32:22;7.50;99.90
44215;DHT22;29884;47.450;19.124;2023-02-01T09:34:52;7.70;99.90
44215;DHT22;29884;47.450;19.124;2023-02-01T09:37:18;7.50;99.90
44215;DHT22;29884;47.450;19.124;2023-02-01T09:39:44;7.50;99.90
44215;DHT22;29884;47.450;19.124;2023-02-01T09:42:31;7.60;99.90
44215;DHT22;29884;47.450;19.124;2023-02-01T09:45:14;7.70;99.90
44215;DHT22;29884;47.450;19.124;2023-02-01T09:47:51;7.80;99.90
44215;DHT22;29884;47.450;19.124;2023-02-01T09:50:22;7.80;99.90
44215;DHT22;29884;47.450;19.124;2023-02-01T09:53:00;7.60;99.90
44215;DHT22;29884;47.450;19.124;2023-02-01T09:55:38;7.40;99.90
44215;DHT22;29884;47.450;19.124;2023-02-01T10:00:51;7.30;99.90
44215;DHT22;29884;47.450;19.124;2023-02-01T10:03:17;7.30;99.90
44215;DHT22;29884;47.450;19.124;2023-02-01T10:08:40;7.10;99.90
44215;DHT22;29884;47.450;19.124;2023-02-01T10:22:47;7.30;99.90
44215;DHT22;29884;47.450;19.124;2023-02-01T10:25:44;7.10;99.90
44215;DHT22;29884;47.450;19.124;2023-02-01T10:28:11;7.20;99.90
44215;DHT22;29884;47.450;19.124;2023-02-01T10:30:43;7.30;99.90
44215;DHT22;29884;47.450;19.124;2023-02-01T10:35:44;7.10;99.90
44215;DHT22;29884;47.450;19.124;2023-02-01T10:38:27;7.00;99.90
44215;DHT22;29884;47.450;19.124;2023-02-01T10:40:57;7.00;99.90
44215;DHT22;29884;47.450;19.124;2023-02-01T10:43:24;7.10;99.90
44215;DHT22;29884;47.450;19.124;2023-02-01T10:45:51;7.30;99.90
44215;DHT22;29884;47.450;19.124;2023-02-01T10:48:17;7.50;99.90
44215;DHT22;29884;47.450;19.124;2023-02-01T10:53:30;7.50;99.90
44215;DHT22;29884;47.450;19.124;2023-02-01T10:55:58;7.60;99.90
44215;DHT22;29884;47.450;19.124;2023-02-01T10:58:32;7.40;99.90
44215;DHT22;29884;47.450;19.124;2023-02-01T11:01:03;7.30;99.90
44215;DHT22;29884;47.450;19.124;2023-02-01T11:03:41;7.10;99.90
44215;DHT22;29884;47.450;19.124;2023-02-01T11:08:45;7.10;99.90
44215;DHT22;29884;47.450;19.124;2023-02-01T11:11:12;7.00;99.90
44215;DHT22;29884;47.450;19.124;2023-02-01T11:13:39;7.20;99.90
44215;DHT22;29884;47.450;19.124;2023-02-01T11:16:06;7.50;99.90
44215;DHT22;29884;47.450;19.124;2023-02-01T11:18:36;7.70;99.90
44215;DHT22;29884;47.450;19.124;2023-02-01T11:21:03;7.70;99.90
44215;DHT22;29884;47.450;19.124;2023-02-01T11:23:30;7.70;99.90
44215;DHT22;29884;47.450;19.124;2023-02-01T11:26:10;7.80;99.90
44215;DHT22;29884;47.450;19.124;2023-02-01T11:28:39;7.70;99.90
44215;DHT22;29884;47.450;19.124;2023-02-01T11:31:10;7.70;99.90
44215;DHT22;29884;47.450;19.124;2023-02-01T11:33:38;7.60;99.90
44215;DHT22;29884;47.450;19.124;2023-02-01T11:36:09;7.50;99.90
44215;DHT22;29884;47.450;19.124;2023-02-01T11:38:36;7.50;99.90
44215;DHT22;29884;47.450;19.124;2023-02-01T11:41:20;7.50;99.90
44215;DHT22;29884;47.450;19.124;2023-02-01T11:44:00;7.40;99.90
44215;DHT22;29884;47.450;19.124;2023-02-01T11:46:32;7.20;99.90
44215;DHT22;29884;47.450;19.124;2023-02-01T11:49:21;7.10;99.90
44215;DHT22;29884;47.450;19.124;2023-02-01T11:52:12;6.80;99.90
44215;DHT22;29884;47.450;19.124;2023-02-01T11:55:16;6.70;99.90
44215;DHT22;29884;47.450;19.124;2023-02-01T12:08:34;6.30;99.90
44215;DHT22;29884;47.450;19.124;2023-02-01T12:11:18;6.30;99.90
44215;DHT22;29884;47.450;19.124;2023-02-01T12:14:14;6.30;99.90
44215;DHT22;29884;47.450;19.124;2023-02-01T12:17:15;6.30;99.90
44215;DHT22;29884;47.450;19.124;2023-02-01T12:36:25;5.90;99.90
44215;DHT22;29884;47.450;19.124;2023-02-01T12:44:47;5.30;99.90
44215;DHT22;29884;47.450;19.124;2023-02-01T12:47:16;5.00;99.90
44215;DHT22;29884;47.450;19.124;2023-02-01T12:49:53;5.00;99.90
44215;DHT22;29884;47.450;19.124;2023-02-01T12:52:42;4.90;99.90
44215;DHT22;29884;47.450;19.124;2023-02-01T12:55:18;4.80;99.90
44215;DHT22;29884;47.450;19.124;2023-02-01T13:00:44;4.70;99.90
44215;DHT22;29884;47.450;19.124;2023-02-01T13:05:58;4.90;99.90
44215;DHT22;29884;47.450;19.124;2023-02-01T13:11:29;5.10;99.90
44215;DHT22;29884;47.450;19.124;2023-02-01T13:17:21;5.50;99.90
44215;DHT22;29884;47.450;19.124;2023-02-01T13:22:34;5.50;99.90
44215;DHT22;29884;47.450;19.124;2023-02-01T13:25:43;5.50;99.90
44215;DHT22;29884;47.450;19.124;2023-02-01T13:28:15;5.30;99.90
44215;DHT22;29884;47.450;19.124;2023-02-01T13:41:59;5.10;99.90
44215;DHT22;29884;47.450;19.124;2023-02-01T13:44:30;5.10;99.90
44215;DHT22;29884;47.450;19.124;2023-02-01T13:47:01;5.10;99.90
44215;DHT22;29884;47.450;19.124;2023-02-01T13:49:32;5.10;99.90
44215;DHT22;29884;47.450;19.124;2023-02-01T13:52:01;5.00;99.90
44215;DHT22;29884;47.450;19.124;2023-02-01T13:54:33;5.00;99.90
44215;DHT22;29884;47.450;19.124;2023-02-01T13:57:04;5.00;99.90
44215;DHT22;29884;47.450;19.124;2023-02-01T14:05:10;4.90;99.90
44215;DHT22;29884;47.450;19.124;2023-02-01T14:07:36;4.90;99.90
44215;DHT22;29884;47.450;19.124;2023-02-01T14:10:59;4.90;99.90
44215;DHT22;29884;47.450;19.124;2023-02-01T14:31:54;5.30;99.90
44215;DHT22;29884;47.450;19.124;2023-02-01T14:34:37;5.30;99.90
44215;DHT22;29884;47.450;19.124;2023-02-01T14:37:11;5.30;99.90
44215;DHT22;29884;47.450;19.124;2023-02-01T14:42:29;5.30;99.90
44215;DHT22;29884;47.450;19.124;2023-02-01T15:03:52;5.60;99.90
44215;DHT22;29884;47.450;19.124;2023-02-01T15:14:45;5.60;99.90
44215;DHT22;29884;47.450;19.124;2023-02-01T15:17:22;5.60;99.90
44215;DHT22;29884;47.450;19.124;2023-02-01T15:19:57;5.60;99.90
44215;DHT22;29884;47.450;19.124;2023-02-01T15:22:24;5.50;99.90
44215;DHT22;29884;47.450;19.124;2023-02-01T15:24:55;5.50;99.90
44215;DHT22;29884;47.450;19.124;2023-02-01T15:27:21;5.40;99.90
44215;DHT22;29884;47.450;19.124;2023-02-01T15:29:47;5.40;99.90
44215;DHT22;29884;47.450;19.124;2023-02-01T15:32:34;5.40;99.90
44215;DHT22;29884;47.450;19.124;2023-02-01T15:35:01;5.40;99.90
44215;DHT22;29884;47.450;19.124;2023-02-01T15:37:27;5.40;99.90
44215;DHT22;29884;47.450;19.124;2023-02-01T15:45:19;5.30;99.90
44215;DHT22;29884;47.450;19.124;2023-02-01T15:47:48;5.20;99.90
44215;DHT22;29884;47.450;19.124;2023-02-01T15:50:18;5.20;99.90
44215;DHT22;29884;47.450;19.124;2023-02-01T15:52:47;5.20;99.90
44215;DHT22;29884;47.450;19.124;2023-02-01T15:55:38;5.10;99.90
44215;DHT22;29884;47.450;19.124;2023-02-01T15:58:13;5.10;99.90
44215;DHT22;29884;47.450;19.124;2023-02-01T16:00:53;5.10;99.90
44215;DHT22;29884;47.450;19.124;2023-02-01T16:03:36;5.20;99.90
44215;DHT22;29884;47.450;19.124;2023-02-01T16:06:50;5.20;99.90
44215;DHT22;29884;47.450;19.124;2023-02-01T16:09:03;5.10;99.90
44215;DHT22;29884;47.450;19.124;2023-02-01T16:12:02;5.20;99.90
44215;DHT22;29884;47.450;19.124;2023-02-01T16:14:27;5.20;99.90
44215;DHT22;29884;47.450;19.124;2023-02-01T16:16:54;5.30;99.90
44215;DHT22;29884;47.450;19.124;2023-02-01T16:19:20;5.30;99.90
44215;DHT22;29884;47.450;19.124;2023-02-01T16:21:48;5.40;99.90
44215;DHT22;29884;47.450;19.124;2023-02-01T16:24:14;5.50;99.90
44215;DHT22;29884;47.450;19.124;2023-02-01T16:26:40;5.40;99.90
44215;DHT22;29884;47.450;19.124;2023-02-01T16:29:06;5.40;99.90
44215;DHT22;29884;47.450;19.124;2023-02-01T16:31:37;5.40;99.90
44215;DHT22;29884;47.450;19.124;2023-02-01T16:34:05;5.40;99.90
44215;DHT22;29884;47.450;19.124;2023-02-01T16:36:32;5.40;99.90
44215;DHT22;29884;47.450;19.124;2023-02-01T16:38:58;5.30;99.90
44215;DHT22;29884;47.450;19.124;2023-02-01T16:41:24;5.40;99.90
44215;DHT22;29884;47.450;19.124;2023-02-01T16:43:52;5.40;99.90
44215;DHT22;29884;47.450;19.124;2023-02-01T16:46:21;5.40;99.90
44215;DHT22;29884;47.450;19.124;2023-02-01T16:48:56;5.40;99.90
44215;DHT22;29884;47.450;19.124;2023-02-01T16:51:24;5.40;99.90
44215;DHT22;29884;47.450;19.124;2023-02-01T16:53:51;5.40;99.90
44215;DHT22;29884;47.450;19.124;2023-02-01T16:56:23;5.40;99.90
44215;DHT22;29884;47.450;19.124;2023-02-01T16:58:50;5.40;99.90
44215;DHT22;29884;47.450;19.124;2023-02-01T17:01:18;5.40;99.90
44215;DHT22;29884;47.450;19.124;2023-02-01T17:03:44;5.40;99.90
44215;DHT22;29884;47.450;19.124;2023-02-01T17:06:12;5.30;99.90
44215;DHT22;29884;47.450;19.124;2023-02-01T17:08:45;5.30;99.90
44215;DHT22;29884;47.450;19.124;2023-02-01T17:11:13;5.20;99.90
44215;DHT22;29884;47.450;19.124;2023-02-01T17:13:39;5.10;99.90
44215;DHT22;29884;47.450;19.124;2023-02-01T17:16:21;5.10;99.90
44215;DHT22;29884;47.450;19.124;2023-02-01T17:19:04;5.10;99.90
44215;DHT22;29884;47.450;19.124;2023-02-01T17:21:42;5.00;99.90
44215;DHT22;29884;47.450;19.124;2023-02-01T17:24:15;4.90;99.90
44215;DHT22;29884;47.450;19.124;2023-02-01T17:26:42;4.80;99.90
44215;DHT22;29884;47.450;19.124;2023-02-01T17:29:08;4.80;99.90
44215;DHT22;29884;47.450;19.124;2023-02-01T17:31:40;4.70;99.90
44215;DHT22;29884;47.450;19.124;2023-02-01T17:34:09;4.70;99.90
44215;DHT22;29884;47.450;19.124;2023-02-01T17:36:35;4.70;99.90
44215;DHT22;29884;47.450;19.124;2023-02-01T17:39:01;4.60;99.90
44215;DHT22;29884;47.450;19.124;2023-02-01T17:41:27;4.60;99.90
44215;DHT22;29884;47.450;19.124;2023-02-01T17:43:53;4.70;99.90
44215;DHT22;29884;47.450;19.124;2023-02-01T17:46:19;4.70;99.90
44215;DHT22;29884;47.450;19.124;2023-02-01T17:48:45;4.60;99.90
44215;DHT22;29884;47.450;19.124;2023-02-01T17:51:19;4.60;99.90
44215;DHT22;29884;47.450;19.124;2023-02-01T17:53:46;4.50;99.90
44215;DHT22;29884;47.450;19.124;2023-02-01T17:56:20;4.40;99.90
44215;DHT22;29884;47.450;19.124;2023-02-01T17:58:47;4.40;99.90
44215;DHT22;29884;47.450;19.124;2023-02-01T18:01:15;4.30;99.90
44215;DHT22;29884;47.450;19.124;2023-02-01T18:03:41;4.20;99.90
44215;DHT22;29884;47.450;19.124;2023-02-01T18:06:15;4.30;99.90
44215;DHT22;29884;47.450;19.124;2023-02-01T18:08:42;4.20;99.90
44215;DHT22;29884;47.450;19.124;2023-02-01T18:11:12;4.30;99.90
44215;DHT22;29884;47.450;19.124;2023-02-01T18:13:38;4.40;99.90
44215;DHT22;29884;47.450;19.124;2023-02-01T18:16:05;4.40;99.90
44215;DHT22;29884;47.450;19.124;2023-02-01T18:18:31;4.40;99.90
44215;DHT22;29884;47.450;19.124;2023-02-01T18:20:58;4.30;99.90
44215;DHT22;29884;47.450;19.124;2023-02-01T18:23:24;4.30;99.90
44215;DHT22;29884;47.450;19.124;2023-02-01T18:25:51;4.30;99.90
44215;DHT22;29884;47.450;19.124;2023-02-01T18:28:17;4.40;99.90
44215;DHT22;29884;47.450;19.124;2023-02-01T18:30:45;4.40;99.90
44215;DHT22;29884;47.450;19.124;2023-02-01T18:33:12;4.40;99.90
44215;DHT22;29884;47.450;19.124;2023-02-01T18:35:38;4.30;99.90
44215;DHT22;29884;47.450;19.124;2023-02-01T18:38:04;4.20;99.90
44215;DHT22;29884;47.450;19.124;2023-02-01T18:40:36;4.20;99.90
44215;DHT22;29884;47.450;19.124;2023-02-01T18:43:04;4.40;99.90
44215;DHT22;29884;47.450;19.124;2023-02-01T18:45:41;4.50;99.90
44215;DHT22;29884;47.450;19.124;2023-02-01T18:48:08;4.40;99.90
44215;DHT22;29884;47.450;19.124;2023-02-01T18:50:39;4.40;99.90
44215;DHT22;29884;47.450;19.124;2023-02-01T18:53:16;4.40;99.90
44215;DHT22;29884;47.450;19.124;2023-02-01T18:55:48;4.50;99.90
44215;DHT22;29884;47.450;19.124;2023-02-01T18:58:15;4.50;99.90
44215;DHT22;29884;47.450;19.124;2023-02-01T19:00:43;4.60;99.90
44215;DHT22;29884;47.450;19.124;2023-02-01T19:03:13;4.60;99.90
44215;DHT22;29884;47.450;19.124;2023-02-01T19:05:39;4.60;99.90
44215;DHT22;29884;47.450;19.124;2023-02-01T19:08:06;4.80;99.90
44215;DHT22;29884;47.450;19.124;2023-02-01T19:10:32;4.80;99.90